Time;durP1;ratioP1;P1;durP2;ratioP2;P2;SDS_P1;SDS_P2;PMS_P1;PMS_P2;Temp;Humidity;BMP_temperature;BMP_pressure;BME280_temperature;BME280_humidity;BME280_pressure;Samples;Min_cycle;Max_cycle;Signal;HPM_P1;HPM_P2
2021/07/02 00:00:38;;;;;;;;;;;;;;;28.99;40.74;99798.31;5078331;28;1906;-38
2021/07/02 00:03:03;;;;;;;;;;;;;;;29.01;40.80;99796.22;5097159;28;808;-36
2021/07/02 00:05:29;;;;;;;;;;;;;;;29.00;40.85;99799.13;5097096;28;728;-36
2021/07/02 00:07:54;;;;;;;;;;;;;;;29.03;40.82;99801.44;5097238;28;791;-38
2021/07/02 00:10:19;;;;;;;;;;;;;;;29.09;40.52;99795.94;5096509;28;744;-38
2021/07/02 00:12:44;;;;;;;;;;;;;;;29.06;40.85;99801.00;5097017;28;752;-36
2021/07/02 00:15:11;;;;;;;;;;;;;;;29.06;40.89;99790.16;5097044;28;1002;-39
2021/07/02 00:17:36;;;;;;;;;;;;;;;29.12;40.82;99799.25;5096204;28;772;-37
2021/07/02 00:20:01;;;;;;;;;;;;;;;29.10;40.71;99796.78;5096694;28;1979;-39
2021/07/02 00:22:27;;;;;;;;;;;;;;;29.12;40.70;99788.44;5096841;28;1095;-38
2021/07/02 00:24:52;;;;;;;;;;;;;;;29.18;40.68;99798.38;5096376;28;744;-37
2021/07/02 00:27:18;;;;;;;;;;;;;;;29.13;40.99;99803.66;5096984;28;743;-39
2021/07/02 00:29:43;;;;;;;;;;;;;;;29.19;40.68;99795.47;5097027;28;970;-39
2021/07/02 00:32:08;;;;;;;;;;;;;;;29.14;40.79;99773.63;5096175;28;795;-37
2021/07/02 00:34:33;;;;;;;;;;;;;;;29.13;40.97;99763.84;5096836;28;787;-37
2021/07/02 00:36:59;;;;;;;;;;;;;;;29.18;40.89;99760.47;5096856;28;772;-37
2021/07/02 00:39:24;;;;;;;;;;;;;;;29.27;40.69;99766.44;5096219;28;1972;-36
2021/07/02 00:41:49;;;;;;;;;;;;;;;29.27;40.76;99769.16;5096548;28;800;-36
2021/07/02 00:44:15;;;;;;;;;;;;;;;29.14;41.01;99775.50;5096157;28;923;-36
2021/07/02 00:46:40;;;;;;;;;;;;;;;29.24;41.17;99773.13;5096172;28;764;-38
2021/07/02 00:49:05;;;;;;;;;;;;;;;29.20;40.98;99777.31;5099439;28;891;-36
2021/07/02 00:51:31;;;;;;;;;;;;;;;29.17;41.21;99775.91;5100291;28;800;-36
2021/07/02 00:54:05;;;;;;;;;;;;;;;29.21;41.06;99781.72;5081878;28;840;-38
2021/07/02 00:56:31;;;;;;;;;;;;;;;29.17;40.90;99786.72;5100486;28;847;-36
2021/07/02 00:58:56;;;;;;;;;;;;;;;29.24;41.14;99793.97;5100110;28;1889;-36
2021/07/02 01:01:21;;;;;;;;;;;;;;;29.16;41.37;99800.50;5100013;28;720;-36
2021/07/02 01:03:47;;;;;;;;;;;;;;;29.25;40.90;99818.13;5100516;28;776;-37
2021/07/02 01:06:13;;;;;;;;;;;;;;;29.18;41.28;99814.63;5100482;28;774;-37
2021/07/02 01:08:38;;;;;;;;;;;;;;;29.29;41.00;99851.03;5100311;28;775;-37
2021/07/02 01:11:03;;;;;;;;;;;;;;;29.46;40.67;99857.53;5100342;28;784;-37
2021/07/02 01:13:28;;;;;;;;;;;;;;;29.36;40.83;99867.22;5100311;28;985;-36
2021/07/02 01:15:54;;;;;;;;;;;;;;;29.39;40.70;99875.75;5099743;28;947;-36
2021/07/02 01:18:19;;;;;;;;;;;;;;;29.40;40.79;99890.94;5100387;28;827;-38
2021/07/02 01:20:48;;;;;;;;;;;;;;;29.40;41.03;99909.06;5099867;28;1906;-37
2021/07/02 01:23:13;;;;;;;;;;;;;;;29.38;41.18;99924.72;5099782;28;1134;-36
2021/07/02 01:25:38;;;;;;;;;;;;;;;29.37;41.07;99932.03;5100269;28;840;-36
2021/07/02 01:28:04;;;;;;;;;;;;;;;29.29;41.47;99932.28;5081622;28;784;-39
2021/07/02 01:30:29;;;;;;;;;;;;;;;29.37;41.00;99944.72;5099434;28;986;-39
2021/07/02 01:32:54;;;;;;;;;;;;;;;29.31;41.41;99955.38;5099507;28;732;-37
2021/07/02 01:35:19;;;;;;;;;;;;;;;29.38;41.10;99973.50;5099934;28;740;-38
2021/07/02 01:37:45;;;;;;;;;;;;;;;29.45;41.01;99976.97;5099880;28;787;-39
2021/07/02 01:40:10;;;;;;;;;;;;;;;29.31;41.43;99974.34;5099609;28;1971;-37
2021/07/02 01:42:36;;;;;;;;;;;;;;;29.43;40.99;99979.91;5099524;28;949;-37
2021/07/02 01:45:01;;;;;;;;;;;;;;;29.51;40.87;99986.94;5099473;28;923;-40
2021/07/02 01:47:26;;;;;;;;;;;;;;;29.46;41.08;99986.78;5099806;28;716;-39
2021/07/02 01:49:52;;;;;;;;;;;;;;;29.45;41.14;99990.53;5099791;28;775;-39
2021/07/02 01:52:17;;;;;;;;;;;;;;;29.34;41.25;99983.94;5099565;28;821;-40
2021/07/02 01:54:42;;;;;;;;;;;;;;;29.49;40.95;99991.75;5099333;28;839;-39
2021/07/02 01:57:12;;;;;;;;;;;;;;;29.42;41.42;100002.63;5099544;28;835;-37
2021/07/02 01:59:38;;;;;;;;;;;;;;;29.40;41.38;100003.88;5098876;28;1902;-36
2021/07/02 02:02:03;;;;;;;;;;;;;;;29.34;41.54;99997.47;5099033;28;755;-39
2021/07/02 02:04:28;;;;;;;;;;;;;;;29.39;41.45;99991.41;5099227;28;732;-38
2021/07/02 02:06:54;;;;;;;;;;;;;;;29.33;41.51;100003.91;5099451;28;862;-39
2021/07/02 02:09:19;;;;;;;;;;;;;;;29.43;41.34;100007.00;5099096;28;819;-37
2021/07/02 02:11:44;;;;;;;;;;;;;;;29.40;41.50;100014.72;5098980;28;851;-36
2021/07/02 02:14:12;;;;;;;;;;;;;;;29.45;41.35;100013.03;5098987;28;959;-37
2021/07/02 02:16:38;;;;;;;;;;;;;;;29.38;41.54;100028.50;5098887;28;839;-38
2021/07/02 02:19:03;;;;;;;;;;;;;;;29.39;41.57;100037.47;5098983;28;1902;-38
2021/07/02 02:21:29;;;;;;;;;;;;;;;29.43;41.32;100042.22;5099167;28;787;-36
2021/07/02 02:23:54;;;;;;;;;;;;;;;29.49;41.48;100051.38;5098374;28;1257;-38
2021/07/02 02:26:19;;;;;;;;;;;;;;;29.34;41.83;100057.88;5099287;28;764;-38
2021/07/02 02:28:44;;;;;;;;;;;;;;;29.43;41.46;100066.59;5098844;28;966;-37
2021/07/02 02:31:10;;;;;;;;;;;;;;;29.33;41.62;100061.66;5098364;28;772;-40
2021/07/02 02:33:35;;;;;;;;;;;;;;;29.43;41.50;100054.94;5098559;28;863;-38
2021/07/02 02:36:01;;;;;;;;;;;;;;;29.41;41.70;100070.59;5098852;28;748;-39
2021/07/02 02:38:26;;;;;;;;;;;;;;;29.46;41.56;100074.31;5098397;28;759;-37
2021/07/02 02:40:52;;;;;;;;;;;;;;;29.48;41.43;100075.97;5098755;28;1913;-36
2021/07/02 02:43:17;;;;;;;;;;;;;;;29.47;41.61;100091.41;5098517;28;767;-37
2021/07/02 02:45:42;;;;;;;;;;;;;;;29.39;41.72;100095.19;5097944;28;999;-36
2021/07/02 02:48:07;;;;;;;;;;;;;;;29.47;41.33;100102.22;5098677;28;827;-38
2021/07/02 02:50:33;;;;;;;;;;;;;;;29.53;41.46;100105.97;5098505;28;836;-37
2021/07/02 02:52:58;;;;;;;;;;;;;;;29.57;41.34;100116.16;5097835;28;767;-36
2021/07/02 02:55:23;;;;;;;;;;;;;;;29.50;41.53;100111.78;5099162;28;807;-38
2021/07/02 02:57:48;;;;;;;;;;;;;;;29.43;41.69;100112.66;5098329;28;823;-37
2021/07/02 03:00:14;;;;;;;;;;;;;;;29.48;41.44;100117.44;5098156;28;1894;-38
2021/07/02 03:02:39;;;;;;;;;;;;;;;29.54;41.62;100115.75;5098118;28;843;-37
2021/07/02 03:05:05;;;;;;;;;;;;;;;29.45;41.81;100115.16;5098103;28;775;-37
2021/07/02 03:07:30;;;;;;;;;;;;;;;29.43;41.76;100111.81;5097841;28;867;-40
2021/07/02 03:09:55;;;;;;;;;;;;;;;29.57;41.45;100116.16;5098211;28;764;-37
2021/07/02 03:12:20;;;;;;;;;;;;;;;29.36;41.75;100128.13;5097425;28;804;-39
2021/07/02 03:14:46;;;;;;;;;;;;;;;28.53;41.93;100133.00;5097037;28;912;-39
2021/07/02 03:17:11;;;;;;;;;;;;;;;28.09;42.84;100136.03;5097734;28;800;-39
2021/07/02 03:19:36;;;;;;;;;;;;;;;27.84;43.47;100139.31;5098111;28;1901;-39
2021/07/02 03:22:02;;;;;;;;;;;;;;;27.70;42.92;100147.34;5097483;28;1177;-39
2021/07/02 03:24:27;;;;;;;;;;;;;;;27.60;43.41;100153.09;5097718;28;724;-39
2021/07/02 03:26:52;;;;;;;;;;;;;;;26.85;45.83;100149.09;5097734;28;754;-39
2021/07/02 03:29:18;;;;;;;;;;;;;;;26.64;46.49;100158.06;5097051;28;938;-38
2021/07/02 03:31:43;;;;;;;;;;;;;;;27.30;45.23;100166.03;5097680;28;848;-39
2021/07/02 03:34:08;;;;;;;;;;;;;;;26.85;46.35;100161.75;5097407;28;795;-38
2021/07/02 03:36:34;;;;;;;;;;;;;;;26.40;47.37;100155.56;5097372;28;799;-38
2021/07/02 03:38:59;;;;;;;;;;;;;;;26.78;46.60;100151.75;5097600;28;1934;-38
2021/07/02 03:41:24;;;;;;;;;;;;;;;26.58;47.01;100156.13;5097543;28;803;-38
2021/07/02 03:43:50;;;;;;;;;;;;;;;26.01;49.15;100163.00;5096777;28;947;-38
2021/07/02 03:46:15;;;;;;;;;;;;;;;23.00;53.19;100160.75;5097656;28;787;-39
2021/07/02 03:48:40;;;;;;;;;;;;;;;21.83;56.45;100155.22;5097147;28;887;-40
2021/07/02 03:51:06;;;;;;;;;;;;;;;21.34;56.31;100164.66;5096882;28;1338;-54
2021/07/02 03:53:31;;;;;;;;;;;;;;;21.14;56.31;100167.56;5053584;28;788;-39
2021/07/02 03:55:56;;;;;;;;;;;;;;;20.98;55.87;100159.41;5097322;28;763;-39
2021/07/02 03:58:21;;;;;;;;;;;;;;;20.84;55.56;100153.59;5097464;28;799;-40
2021/07/02 04:00:47;;;;;;;;;;;;;;;20.58;55.94;100138.38;5097014;28;1894;-39
2021/07/02 04:03:14;;;;;;;;;;;;;;;20.40;55.56;100130.38;5097196;28;803;-41
2021/07/02 04:05:43;;;;;;;;;;;;;;;20.30;55.31;100125.09;5097078;28;799;-39
2021/07/02 04:08:09;;;;;;;;;;;;;;;20.14;56.16;100120.41;5096934;28;732;-34
2021/07/02 04:10:35;;;;;;;;;;;;;;;20.08;56.05;100115.69;5096752;28;852;-36
2021/07/02 04:13:00;;;;;;;;;;;;;;;23.36;49.39;100119.25;5097433;28;768;-43
2021/07/02 04:15:25;;;;;;;;;;;;;;;24.16;44.95;100124.63;5096434;28;950;-38
2021/07/02 04:17:51;;;;;;;;;;;;;;;23.50;46.45;100125.78;5097093;28;744;-37
2021/07/02 04:20:16;;;;;;;;;;;;;;;23.17;46.96;100123.16;5097101;28;1897;-40
2021/07/02 04:22:41;;;;;;;;;;;;;;;22.99;47.49;100108.94;5096603;28;1162;-39
2021/07/02 04:25:07;;;;;;;;;;;;;;;23.02;47.30;100105.09;5096722;28;736;-39
2021/07/02 04:27:33;;;;;;;;;;;;;;;23.56;49.90;100119.72;5097291;28;705;-38
2021/07/02 04:29:58;;;;;;;;;;;;;;;24.96;45.98;100115.41;5096473;28;962;-43
2021/07/02 04:32:23;;;;;;;;;;;;;;;25.39;44.45;100106.69;5096740;28;827;-38
2021/07/02 04:34:49;;;;;;;;;;;;;;;25.49;46.73;100109.09;5096805;28;760;-41
2021/07/02 04:37:14;;;;;;;;;;;;;;;25.87;44.13;100107.31;5096666;28;836;-38
2021/07/02 04:39:39;;;;;;;;;;;;;;;25.80;45.02;100124.22;5096646;28;1963;-38
2021/07/02 04:42:05;;;;;;;;;;;;;;;24.71;45.03;100123.69;5096890;28;759;-37
2021/07/02 04:44:30;;;;;;;;;;;;;;;23.99;45.52;100125.72;5095991;28;958;-37
2021/07/02 04:46:55;;;;;;;;;;;;;;;23.32;45.88;100125.97;5096661;28;779;-38
2021/07/02 04:49:21;;;;;;;;;;;;;;;23.09;46.29;100127.53;5097261;28;740;-40
2021/07/02 04:51:47;;;;;;;;;;;;;;;23.16;46.15;100130.38;5077813;28;820;-38
2021/07/02 04:54:13;;;;;;;;;;;;;;;22.88;46.30;100120.03;5096192;28;864;-37
2021/07/02 04:56:38;;;;;;;;;;;;;;;24.20;45.80;100120.56;5096620;28;807;-38
2021/07/02 04:59:03;;;;;;;;;;;;;;;24.89;46.20;100123.34;5096115;28;1968;-37
2021/07/02 05:01:29;;;;;;;;;;;;;;;23.87;44.82;100114.53;5096539;28;782;-39
2021/07/02 05:03:54;;;;;;;;;;;;;;;23.35;45.54;100112.22;5078343;28;1283;-38
2021/07/02 05:06:19;;;;;;;;;;;;;;;22.95;47.16;100110.31;5095893;28;692;-38
2021/07/02 05:08:45;;;;;;;;;;;;;;;23.15;50.78;100112.63;5096550;28;771;-37
2021/07/02 05:11:10;;;;;;;;;;;;;;;24.80;47.14;100101.09;5096274;28;885;-43
2021/07/02 05:13:38;;;;;;;;;;;;;;;24.73;46.36;100108.22;5096214;28;771;-40
2021/07/02 05:16:04;;;;;;;;;;;;;;;23.17;52.21;100101.72;5095245;28;979;-39
2021/07/02 05:18:29;;;;;;;;;;;;;;;22.96;52.38;100095.88;5092886;28;1209;-36
2021/07/02 05:20:55;;;;;;;;;;;;;;;23.02;53.63;100106.94;5095751;28;1902;-35
2021/07/02 05:23:20;;;;;;;;;;;;;;;24.03;53.78;100106.38;5096212;28;1232;-45
2021/07/02 05:25:45;;;;;;;;;;;;;;;25.44;49.80;100104.28;5096371;28;823;-50
2021/07/02 05:28:11;;;;;;;;;;;;;;;25.88;46.89;100098.19;5096061;28;754;-35
2021/07/02 05:30:36;;;;;;;;;;;;;;;25.95;44.24;100111.72;5095578;28;1219;-37
2021/07/02 05:33:01;;;;;;;;;;;;;;;26.08;43.79;100114.56;5096207;28;802;-35
2021/07/02 05:35:27;;;;;;;;;;;;;;;26.29;44.97;100126.41;5098633;28;756;-35
2021/07/02 05:37:52;;;;;;;;;;;;;;;26.58;44.91;100126.44;5100051;28;787;-35
2021/07/02 05:40:19;;;;;;;;;;;;;;;25.51;46.77;100120.53;5100327;28;1917;-50
2021/07/02 05:42:44;;;;;;;;;;;;;;;24.78;50.71;100129.19;5099128;28;850;-34
2021/07/02 05:45:10;;;;;;;;;;;;;;;25.76;46.25;100116.69;5099494;28;989;-34
2021/07/02 05:47:36;;;;;;;;;;;;;;;26.38;46.66;100100.16;5099859;28;760;-36
2021/07/02 05:50:02;;;;;;;;;;;;;;;26.62;47.14;100104.31;5099358;28;736;-37
2021/07/02 05:52:27;;;;;;;;;;;;;;;26.90;46.25;100108.03;5099721;28;767;-34
2021/07/02 05:54:52;;;;;;;;;;;;;;;27.06;45.73;100103.41;5099785;28;744;-40
2021/07/02 05:57:17;;;;;;;;;;;;;;;25.99;47.59;100103.06;5099041;28;775;-37
2021/07/02 05:59:43;;;;;;;;;;;;;;;25.27;49.10;100110.88;5099665;28;1976;-36
2021/07/02 06:02:08;;;;;;;;;;;;;;;24.73;50.10;100102.84;5099638;28;807;-37
2021/07/02 06:04:33;;;;;;;;;;;;;;;26.16;47.42;100117.13;5099074;28;827;-35
2021/07/02 06:06:58;;;;;;;;;;;;;;;25.52;48.62;100108.75;5099408;28;807;-37
2021/07/02 06:09:24;;;;;;;;;;;;;;;25.30;48.92;100115.91;5099417;28;847;-38
2021/07/02 06:11:49;;;;;;;;;;;;;;;24.72;50.40;100106.56;5099553;28;740;-35
2021/07/02 06:14:14;;;;;;;;;;;;;;;26.24;48.19;100096.47;5098969;28;947;-36
2021/07/02 06:16:39;;;;;;;;;;;;;;;25.28;49.47;100101.78;5099130;28;764;-35
2021/07/02 06:19:05;;;;;;;;;;;;;;;24.76;50.39;100097.09;5098904;28;1901;-44
2021/07/02 06:21:30;;;;;;;;;;;;;;;24.79;49.58;100096.72;5098957;28;732;-42
2021/07/02 06:23:55;;;;;;;;;;;;;;;25.84;48.64;100099.59;5098810;28;1087;-33
2021/07/02 06:26:21;;;;;;;;;;;;;;;26.00;47.19;100098.53;5099333;28;751;-37
2021/07/02 06:28:46;;;;;;;;;;;;;;;24.91;49.85;100097.13;5098685;28;962;-42
2021/07/02 06:31:11;;;;;;;;;;;;;;;25.21;49.40;100093.63;5098917;28;740;-33
2021/07/02 06:33:36;;;;;;;;;;;;;;;24.67;50.20;100090.94;5099361;28;791;-45
2021/07/02 06:36:02;;;;;;;;;;;;;;;24.70;50.24;100090.59;5098574;28;759;-36
2021/07/02 06:38:28;;;;;;;;;;;;;;;25.54;50.07;100092.41;5098795;28;764;-35
2021/07/02 06:40:53;;;;;;;;;;;;;;;26.60;47.61;100102.81;5099176;28;1913;-35
2021/07/02 06:43:19;;;;;;;;;;;;;;;27.04;47.21;100097.34;5098505;28;866;-40
2021/07/02 06:45:44;;;;;;;;;;;;;;;27.45;46.19;100104.63;5097496;28;911;-43
2021/07/02 06:48:09;;;;;;;;;;;;;;;27.53;45.96;100092.81;5098601;28;810;-45
2021/07/02 06:50:35;;;;;;;;;;;;;;;27.67;45.84;100096.41;5098125;28;819;-35
2021/07/02 06:53:02;;;;;;;;;;;;;;;27.89;46.02;100112.50;5098350;28;830;-41
2021/07/02 06:55:28;;;;;;;;;;;;;;;27.84;43.86;100098.75;5098639;28;764;-50
2021/07/02 06:57:53;;;;;;;;;;;;;;;27.63;47.01;100101.38;5098046;28;791;-56
2021/07/02 07:00:19;;;;;;;;;;;;;;;25.98;45.08;100097.88;5098106;28;1971;-38
2021/07/02 07:02:45;;;;;;;;;;;;;;;24.89;45.92;100096.44;5098341;28;779;-35
2021/07/02 07:05:10;;;;;;;;;;;;;;;26.13;44.75;100128.31;5098380;28;799;-46
2021/07/02 07:07:36;;;;;;;;;;;;;;;25.43;45.12;100102.63;5098267;28;750;-34
2021/07/02 07:10:02;;;;;;;;;;;;;;;24.75;49.19;100095.41;5098275;28;814;-37
2021/07/02 07:12:27;;;;;;;;;;;;;;;26.13;45.59;100093.25;5097942;28;783;-53
2021/07/02 07:14:52;;;;;;;;;;;;;;;25.97;44.60;100109.69;5097507;28;1002;-48
2021/07/02 07:17:17;;;;;;;;;;;;;;;24.61;47.03;100098.94;5098037;28;748;-35
2021/07/02 07:19:44;;;;;;;;;;;;;;;25.21;47.22;100095.50;5097273;28;1910;-35
2021/07/02 07:22:10;;;;;;;;;;;;;;;26.38;44.51;100092.06;5097531;28;1283;-36
2021/07/02 07:24:35;;;;;;;;;;;;;;;25.00;46.88;100089.81;5097905;28;844;-35
2021/07/02 07:27:00;;;;;;;;;;;;;;;24.65;50.52;100092.16;5097498;28;767;-52
2021/07/02 07:29:25;;;;;;;;;;;;;;;25.77;43.34;100089.59;5097630;28;1018;-36
2021/07/02 07:31:51;;;;;;;;;;;;;;;24.66;46.02;100088.44;5097612;28;1476;-42
2021/07/02 07:37:03;;;;;;;;;;;;;;;26.31;44.13;100086.56;5097418;28;715;-45
2021/07/02 07:39:29;;;;;;;;;;;;;;;25.25;45.79;100091.38;5097730;28;1983;-37
2021/07/02 07:41:54;;;;;;;;;;;;;;;24.70;48.91;100085.22;5094518;28;1107;-52
2021/07/02 07:44:19;;;;;;;;;;;;;;;26.19;44.00;100075.50;5095635;28;824;-40
2021/07/02 07:46:44;;;;;;;;;;;;;;;25.84;44.08;100080.75;5062956;28;1292;-41
2021/07/02 07:49:10;;;;;;;;;;;;;;;24.69;46.05;100085.41;5097083;28;752;-37
2021/07/02 07:51:47;;;;;;;;;;;;;;;25.78;44.66;100076.94;5097180;28;1094;-56
2021/07/02 07:54:12;;;;;;;;;;;;;;;26.60;42.64;100074.00;5096634;28;1030;-56
2021/07/02 07:56:38;;;;;;;;;;;;;;;24.99;45.95;100077.38;5112898;28;1188;-56
2021/07/02 07:59:03;;;;;;;;;;;;;;;25.02;47.96;100078.88;5114383;28;1902;-37
2021/07/02 08:01:28;;;;;;;;;;;;;;;26.31;44.16;100083.88;5097491;28;756;-56
2021/07/02 08:03:54;;;;;;;;;;;;;;;24.68;46.38;100100.69;5096242;28;831;-37
2021/07/02 08:06:19;;;;;;;;;;;;;;;23.98;48.44;100092.63;5096667;28;1349;-38
2021/07/02 08:08:45;;;;;;;;;;;;;;;24.69;49.30;100085.41;5097291;28;875;-37
2021/07/02 08:11:11;;;;;;;;;;;;;;;26.06;45.56;100080.75;5112436;28;859;-55
2021/07/02 08:13:36;;;;;;;;;;;;;;;24.51;47.20;100085.72;5097219;28;755;-55
2021/07/02 08:16:01;;;;;;;;;;;;;;;25.03;47.86;100080.53;5097195;28;998;-34
2021/07/02 08:18:28;;;;;;;;;;;;;;;25.77;45.24;100083.34;5078091;28;982;-45
2021/07/02 08:20:53;;;;;;;;;;;;;;;24.40;47.17;100073.53;5097009;28;1918;-34
2021/07/02 08:23:18;;;;;;;;;;;;;;;24.86;48.27;100072.59;5096874;28;1098;-47
2021/07/02 08:25:43;;;;;;;;;;;;;;;25.99;44.34;100067.22;5096597;28;752;-59
2021/07/02 08:30:53;;;;;;;;;;;;;;;25.41;45.66;100066.13;5096381;28;970;-47
2021/07/02 08:33:19;;;;;;;;;;;;;;;25.62;44.28;100064.50;5096537;28;755;-55
2021/07/02 08:35:45;;;;;;;;;;;;;;;24.38;46.40;100060.28;5078496;28;1093;-33
2021/07/02 08:38:10;;;;;;;;;;;;;;;25.10;46.29;100059.09;5096709;28;692;-38
2021/07/02 08:40:35;;;;;;;;;;;;;;;25.75;44.12;100066.53;5096464;28;1913;-34
2021/07/02 08:43:01;;;;;;;;;;;;;;;24.42;46.02;100058.91;5096883;28;775;-38
2021/07/02 08:45:26;;;;;;;;;;;;;;;25.21;45.86;100058.63;5096399;28;955;-33
2021/07/02 08:47:52;;;;;;;;;;;;;;;25.58;44.05;100057.81;5096390;28;731;-34
2021/07/02 08:50:18;;;;;;;;;;;;;;;24.39;45.98;100056.56;5096941;28;763;-52
2021/07/02 08:52:43;;;;;;;;;;;;;;;25.36;45.03;100061.31;5096960;28;767;-34
2021/07/02 08:55:09;;;;;;;;;;;;;;;25.30;44.94;100056.69;5096379;28;913;-34
2021/07/02 08:57:35;;;;;;;;;;;;;;;24.29;47.26;100061.38;5078597;28;822;-34
2021/07/02 09:00:00;;;;;;;;;;;;;;;25.48;45.22;100052.72;5096091;28;1902;-37
2021/07/02 09:02:40;;;;;;;;;;;;;;;24.97;46.01;100057.06;5096297;28;807;-58
2021/07/02 09:05:30;;;;;;;;;;;;;;;24.75;50.28;100063.16;5096714;28;815;-34
2021/07/02 09:07:56;;;;;;;;;;;;;;;26.14;45.59;100054.50;5087138;28;1493;-58
2021/07/02 09:10:31;;;;;;;;;;;;;;;24.60;47.18;100056.91;5099150;28;811;-39
2021/07/02 09:12:56;;;;;;;;;;;;;;;24.94;48.21;100064.47;5082451;28;791;-43
2021/07/02 09:15:21;;;;;;;;;;;;;;;26.07;44.70;100055.47;5100068;28;1010;-39
2021/07/02 09:17:49;;;;;;;;;;;;;;;24.74;44.83;100056.06;5100420;28;759;-51
2021/07/02 09:20:19;;;;;;;;;;;;;;;23.70;43.83;100048.31;5081618;28;1910;-62
2021/07/02 09:22:47;;;;;;;;;;;;;;;22.92;44.28;100050.81;5099669;28;1102;-33
2021/07/02 09:25:21;;;;;;;;;;;;;;;22.61;44.98;100044.31;5099765;28;811;-35
2021/07/02 09:27:46;;;;;;;;;;;;;;;22.91;45.18;100044.59;5100581;28;759;-33
2021/07/02 09:30:12;;;;;;;;;;;;;;;22.90;45.34;100034.03;5099608;28;982;-57
2021/07/02 09:32:38;;;;;;;;;;;;;;;22.85;45.88;100043.47;5099902;28;825;-32
2021/07/02 09:35:04;;;;;;;;;;;;;;;23.04;45.52;100040.56;5100131;28;760;-33
2021/07/02 09:37:31;;;;;;;;;;;;;;;22.79;45.84;100036.06;5100270;28;779;-35
2021/07/02 09:39:56;;;;;;;;;;;;;;;22.85;46.23;100045.28;5080786;28;2083;-35
2021/07/02 09:42:25;;;;;;;;;;;;;;;22.84;45.98;100036.41;5099604;28;764;-48
2021/07/02 09:45:10;;;;;;;;;;;;;;;22.68;46.48;100039.97;5099598;28;995;-35
2021/07/02 09:47:35;;;;;;;;;;;;;;;22.68;46.26;100036.44;5099616;28;810;-39
2021/07/02 09:50:17;;;;;;;;;;;;;;;22.77;46.20;100037.25;5099551;28;775;-35
2021/07/02 09:52:52;;;;;;;;;;;;;;;22.63;46.75;100027.06;5099736;28;804;-35
2021/07/02 09:55:20;;;;;;;;;;;;;;;22.72;46.63;100029.75;5099551;28;739;-36
2021/07/02 09:57:45;;;;;;;;;;;;;;;22.66;46.78;100030.41;5100069;28;840;-59
2021/07/02 10:00:11;;;;;;;;;;;;;;;22.60;46.69;100026.53;5099350;28;1951;-43
2021/07/02 10:02:37;;;;;;;;;;;;;;;22.66;46.73;100027.72;5099549;28;740;-35
2021/07/02 10:05:02;;;;;;;;;;;;;;;22.39;47.32;100028.75;5099430;28;768;-36
2021/07/02 10:07:28;;;;;;;;;;;;;;;22.46;47.09;100028.91;5099617;28;732;-35
2021/07/02 10:09:53;;;;;;;;;;;;;;;22.51;46.91;100018.50;5080233;28;821;-35
2021/07/02 10:12:19;;;;;;;;;;;;;;;22.42;47.25;100018.69;5081453;28;765;-52
2021/07/02 10:14:44;;;;;;;;;;;;;;;22.41;47.36;100015.16;5099091;28;955;-44
2021/07/02 10:17:09;;;;;;;;;;;;;;;22.39;47.43;100009.97;5080407;28;892;-37
2021/07/02 10:19:34;;;;;;;;;;;;;;;22.33;47.56;100013.34;5098974;28;1905;-36
2021/07/02 10:22:00;;;;;;;;;;;;;;;22.42;47.20;100007.97;5098872;28;1125;-36
2021/07/02 10:24:25;;;;;;;;;;;;;;;22.35;47.43;100007.81;5098943;28;826;-47
2021/07/02 10:26:50;;;;;;;;;;;;;;;22.39;46.80;100006.44;5080891;28;853;-39
2021/07/02 10:29:16;;;;;;;;;;;;;;;22.20;47.52;100002.28;5080424;28;1283;-34
2021/07/02 10:31:41;;;;;;;;;;;;;;;22.26;47.60;99997.09;5080295;28;811;-46
2021/07/02 10:34:06;;;;;;;;;;;;;;;22.29;47.79;100000.47;5098209;28;1476;-34
2021/07/02 10:36:32;;;;;;;;;;;;;;;22.30;47.42;99994.94;5099260;28;1123;-47
2021/07/02 10:38:57;;;;;;;;;;;;;;;22.32;47.36;99998.25;5098710;28;799;-36
2021/07/02 10:41:25;;;;;;;;;;;;;;;22.30;47.39;99992.25;5098480;28;1977;-36
2021/07/02 10:44:09;;;;;;;;;;;;;;;22.24;47.44;99990.22;5098771;28;958;-36
2021/07/02 10:46:40;;;;;;;;;;;;;;;22.15;47.81;99989.41;5098514;28;810;-36
2021/07/02 10:49:06;;;;;;;;;;;;;;;22.26;47.53;99996.25;5096961;28;1480;-35
2021/07/02 10:51:42;;;;;;;;;;;;;;;22.06;47.83;99987.72;5098586;28;743;-48
2021/07/02 10:54:13;;;;;;;;;;;;;;;22.17;47.70;99991.91;5097890;28;819;-36
2021/07/02 10:56:39;;;;;;;;;;;;;;;22.13;48.04;99991.41;5098535;28;799;-36
2021/07/02 10:59:04;;;;;;;;;;;;;;;22.20;48.00;99991.56;5079828;28;994;-36
2021/07/02 11:01:32;;;;;;;;;;;;;;;22.34;47.43;99992.72;5085376;28;1909;-35
2021/07/02 11:04:16;;;;;;;;;;;;;;;22.21;47.82;100003.97;5098271;28;831;-60
2021/07/02 11:06:41;;;;;;;;;;;;;;;22.29;47.78;100009.31;5098758;28;764;-49
2021/07/02 11:09:07;;;;;;;;;;;;;;;22.08;48.29;100010.66;5097867;28;772;-34
2021/07/02 11:11:51;;;;;;;;;;;;;;;22.23;47.73;100004.63;5098240;28;752;-36
2021/07/02 11:14:16;;;;;;;;;;;;;;;22.09;48.10;100009.66;5098211;28;1084;-36
2021/07/02 11:17:00;;;;;;;;;;;;;;;22.29;47.85;100008.50;5079305;28;997;-34
2021/07/02 11:19:25;;;;;;;;;;;;;;;22.37;47.65;100005.81;5098115;28;1902;-35
2021/07/02 11:22:09;;;;;;;;;;;;;;;22.33;47.92;100012.50;5097618;28;1269;-48
2021/07/02 11:24:53;;;;;;;;;;;;;;;22.34;47.64;100008.81;5097670;28;831;-36
2021/07/02 11:27:31;;;;;;;;;;;;;;;22.31;47.56;100012.66;5098021;28;848;-44
2021/07/02 11:29:56;;;;;;;;;;;;;;;22.28;47.84;100010.31;5079523;28;958;-33
2021/07/02 11:32:31;;;;;;;;;;;;;;;22.43;47.38;100015.00;5096789;28;760;-35
2021/07/02 11:35:31;;;;;;;;;;;;;;;22.31;47.43;100003.78;5097958;28;737;-35
2021/07/02 11:38:11;;;;;;;;;;;;;;;22.18;47.53;100010.50;5015357;28;1347;-51
2021/07/02 11:40:53;;;;;;;;;;;;;;;22.07;48.09;100019.69;5088561;28;1905;-33
2021/07/02 11:43:21;;;;;;;;;;;;;;;22.14;47.77;100022.53;5097772;28;704;-33
2021/07/02 11:45:51;;;;;;;;;;;;;;;22.18;47.34;100026.56;5096883;28;950;-36
2021/07/02 11:48:19;;;;;;;;;;;;;;;22.14;47.86;100015.34;5097348;28;1425;-46
2021/07/02 11:50:45;;;;;;;;;;;;;;;22.31;47.17;100023.38;5097581;28;794;-42
2021/07/02 11:53:26;;;;;;;;;;;;;;;22.15;47.70;100021.56;5096570;28;854;-39
2021/07/02 11:56:05;;;;;;;;;;;;;;;22.39;47.15;100022.53;5097899;28;752;-34
2021/07/02 11:58:31;;;;;;;;;;;;;;;22.02;47.65;100025.56;5097056;28;778;-35
2021/07/02 12:01:16;;;;;;;;;;;;;;;22.17;47.52;100027.56;5096810;28;1898;-33
2021/07/02 12:04:00;;;;;;;;;;;;;;;22.30;47.27;100021.72;5096615;28;1179;-54
2021/07/02 12:06:26;;;;;;;;;;;;;;;22.59;47.10;100023.00;5097080;28;759;-41
2021/07/02 12:08:52;;;;;;;;;;;;;;;22.52;47.88;100027.41;5096954;28;817;-43
2021/07/02 12:11:17;;;;;;;;;;;;;;;22.39;48.12;100019.84;5096871;28;836;-43
2021/07/02 12:13:45;;;;;;;;;;;;;;;22.78;48.24;100014.78;5078171;28;1166;-43
2021/07/02 12:16:11;;;;;;;;;;;;;;;22.98;48.10;100023.28;5078540;28;1135;-43
2021/07/02 12:18:36;;;;;;;;;;;;;;;22.54;49.03;100016.50;5097143;28;767;-42
2021/07/02 12:21:11;;;;;;;;;;;;;;;22.43;49.26;100023.03;5096957;28;1965;-41
2021/07/02 12:23:37;;;;;;;;;;;;;;;22.47;49.17;100017.16;5096580;28;1086;-40
2021/07/02 12:26:12;;;;;;;;;;;;;;;22.83;49.15;100015.97;5096969;28;769;-35
2021/07/02 12:28:58;;;;;;;;;;;;;;;22.41;49.53;100017.00;5096558;28;1209;-38
2021/07/02 12:31:24;;;;;;;;;;;;;;;22.55;49.27;100007.44;5092533;28;1127;-37
2021/07/02 12:33:49;;;;;;;;;;;;;;;22.43;50.01;100013.16;5096177;28;849;-33
2021/07/02 12:36:15;;;;;;;;;;;;;;;22.67;49.72;100016.81;5097095;28;751;-33
2021/07/02 12:38:58;;;;;;;;;;;;;;;22.63;49.09;100023.53;5096655;28;830;-33
2021/07/02 12:41:24;;;;;;;;;;;;;;;22.54;49.03;100020.00;5097108;28;1901;-37
2021/07/02 12:43:49;;;;;;;;;;;;;;;22.71;49.26;100014.63;5078435;28;1017;-38
2021/07/02 12:46:15;;;;;;;;;;;;;;;22.38;49.59;100045.84;5100707;28;843;-35
2021/07/02 12:48:41;;;;;;;;;;;;;;;22.46;50.82;100030.72;5101010;28;808;-43
2021/07/02 12:51:06;;;;;;;;;;;;;;;22.45;51.46;100024.56;5101736;28;748;-45
2021/07/02 12:56:15;;;;;;;;;;;;;;;22.30;50.14;100013.69;5085334;28;649;-35
2021/07/02 12:58:40;;;;;;;;;;;;;;;22.12;49.76;100017.34;5100770;28;959;-36
2021/07/02 13:01:07;;;;;;;;;;;;;;;22.41;48.98;100011.63;5100513;28;1910;-34